HSSS

Khartoum International Airport

Khartoum, Sudan
TAF HSSS 211700Z 2118/2224 22010G20KT 9999 FEW040 SCT140 PROB30 TEMPO 2118/2122 6000 TSRA FEW040CB
Issued Valid From Valid To
Jul-21 @ 17:00 UTC
(6 hours ago)
Jul-21 @ 18:00 UTC
(5 hours ago)
Jul-23 @ 00:00 UTC
(-1 days ago)
Jul-21 @ 18:00 to Jul-23 @ 00:00
TAF HSSS 211700Z 2118/2224 22010G20KT 9999 FEW040 SCT140
Wind Visibility Clouds
220° at 10 knots
 Gusting to 20 knots
10,000+ meters
  • Few at 4,000' AGL
  • Scattered at 14,000' AGL
Expired Click to View Jul-21 @ 18:00 to Jul-21 @ 22:00
PROB30 TEMPO 2118/2122 6000 TSRA FEW040CB
Visibility Clouds Conditions
6,003 meters
  • Few at 4,000' AGL
  • Thunderstorm
  • Rain
TAF HSSS 211700Z 2118/2224 22010G20KT 9999 FEW040 SCT140 PROB30 TEMPO 2118/2122 6000 TSRA FEW040CB
Issued Jul-21 @ 17:00 UTC
(6 hours ago)
Valid From Jul-21 @ 18:00 UTC
(5 hours ago)
Valid To Jul-23 @ 00:00 UTC
(-1 days ago)
Jul-21 @ 18:00 - Jul-23 @ 00:00
Wind Visibility
220° at 10 knots
 Gusting to 20 knots
10,000+ meters
Clouds
  • Few at 4,000' AGL
  • Scattered at 14,000' AGL
Jul-21 @ 18:00 - Jul-21 @ 22:00
Clouds
  • Few at 4,000' AGL
Conditions
  • Thunderstorm
  • Rain